Hugoton, Kansas
Current Conditions -  °F | °C
As of 2:35 PM on Friday 21 Nov 2014 (Local Time) from KLBL Reporting Station
Clear Clear  
Wind Chill: 55°   Ceiling: Unl
Heat Index: 55°   Visibility: 10mi
Dew Point: 34°   Wind: 6mph
Humidity: 44%   Direction: 160°SSE
Pressure: 29.97"   Gusts: NA
Location:  37.18°N, 101.35°W
Report Text: KLBL 212035Z AUTO 16005KT 10SM CLR 13/01 A2997 RMK AO1
Loading
Personal Weather Stations






























Interactive Weather Map New forecast layout! Learn more

10-Day Weather Forecast

Advertisements
Track Severe Weather on mobile